createdAt,value
2023-05-23T00:02:13.975Z,15.00
2023-05-23T00:04:43.121Z,14.98
2023-05-23T00:07:10.986Z,14.98
2023-05-23T00:09:38.653Z,15.00
2023-05-23T00:12:07.175Z,15.04
2023-05-23T00:14:35.617Z,15.10
2023-05-23T00:17:03.895Z,15.17
2023-05-23T00:19:32.220Z,15.23
2023-05-23T00:21:59.943Z,15.29
2023-05-23T00:24:27.647Z,15.35
2023-05-23T00:26:55.254Z,15.39
2023-05-23T00:29:22.904Z,15.43
2023-05-23T00:31:51.565Z,15.45
2023-05-23T00:34:19.474Z,15.47
2023-05-23T00:36:48.301Z,15.49
2023-05-23T00:39:19.968Z,15.50
2023-05-23T00:41:51.084Z,15.50
2023-05-23T00:44:20.680Z,15.51
2023-05-23T00:46:48.567Z,15.51
2023-05-23T00:49:20.332Z,15.51
2023-05-23T00:51:49.844Z,15.52
2023-05-23T00:54:17.748Z,15.54
2023-05-23T00:56:46.023Z,15.53
2023-05-23T00:59:13.855Z,15.53
2023-05-23T01:01:41.508Z,15.54
2023-05-23T01:04:09.520Z,15.54
2023-05-23T01:06:37.806Z,15.53
2023-05-23T01:09:17.548Z,15.52
2023-05-23T01:11:45.178Z,15.51
2023-05-23T01:14:12.852Z,15.50
2023-05-23T01:16:40.937Z,15.49
2023-05-23T01:19:08.912Z,15.48
2023-05-23T01:21:36.624Z,15.48
2023-05-23T01:24:05.122Z,15.47
2023-05-23T01:26:32.971Z,15.44
2023-05-23T01:29:00.831Z,15.42
2023-05-23T01:31:28.506Z,15.39
2023-05-23T01:33:56.515Z,15.34
2023-05-23T01:36:24.947Z,15.27
2023-05-23T01:38:52.715Z,15.23
2023-05-23T01:41:20.803Z,15.19
2023-05-23T01:43:48.469Z,15.13
2023-05-23T01:46:16.518Z,15.09
2023-05-23T01:48:44.303Z,15.05
2023-05-23T01:51:11.975Z,15.02
2023-05-23T01:53:39.682Z,14.99
2023-05-23T01:56:07.521Z,14.99
2023-05-23T01:58:35.558Z,14.98
2023-05-23T02:01:03.304Z,14.96
2023-05-23T02:03:31.358Z,14.94
2023-05-23T02:05:59.029Z,14.95
2023-05-23T02:08:26.822Z,14.95
2023-05-23T02:10:54.855Z,14.95
2023-05-23T02:13:22.456Z,14.95
2023-05-23T02:15:50.053Z,14.96
2023-05-23T02:18:18.286Z,14.96
2023-05-23T02:20:45.944Z,14.97
2023-05-23T02:23:13.924Z,14.95
2023-05-23T02:25:41.895Z,14.96
2023-05-23T02:28:09.733Z,14.94
2023-05-23T02:30:37.328Z,14.92
2023-05-23T02:33:05.294Z,14.92
2023-05-23T02:35:33.384Z,14.91
2023-05-23T02:38:00.985Z,14.91
2023-05-23T02:40:28.667Z,14.88
2023-05-23T02:42:57.414Z,14.87
2023-05-23T02:45:26.586Z,14.87
2023-05-23T02:47:54.652Z,14.88
2023-05-23T02:50:22.330Z,14.87
2023-05-23T02:52:49.939Z,14.88
2023-05-23T02:55:17.616Z,14.88
2023-05-23T02:57:45.380Z,14.88
2023-05-23T03:00:13.933Z,14.87
2023-05-23T03:02:41.664Z,14.87
2023-05-23T03:05:09.383Z,14.88
2023-05-23T03:07:37.147Z,14.88
2023-05-23T03:10:04.967Z,14.88
2023-05-23T03:12:32.967Z,14.89
2023-05-23T03:15:00.578Z,14.91
2023-05-23T03:17:28.263Z,14.91
2023-05-23T03:19:56.002Z,14.91
2023-05-23T03:22:23.627Z,14.91
2023-05-23T03:24:51.620Z,14.89
2023-05-23T03:27:19.216Z,14.89
2023-05-23T03:29:48.283Z,14.91
2023-05-23T03:32:15.992Z,14.91
2023-05-23T03:34:43.853Z,14.93
2023-05-23T03:37:11.472Z,14.93
2023-05-23T03:39:39.940Z,14.93
2023-05-23T03:42:07.707Z,14.94
2023-05-23T03:44:35.348Z,14.94
2023-05-23T03:47:03.074Z,14.95
2023-05-23T03:49:31.074Z,14.96
2023-05-23T03:51:59.033Z,14.96
2023-05-23T03:54:26.674Z,14.98
2023-05-23T03:56:54.274Z,14.99
2023-05-23T03:59:21.917Z,15.01
2023-05-23T04:01:49.938Z,15.02
2023-05-23T04:04:18.530Z,15.03
2023-05-23T04:06:46.224Z,15.01
2023-05-23T04:09:14.131Z,14.99
2023-05-23T04:11:42.615Z,14.99
2023-05-23T04:14:11.564Z,14.97
2023-05-23T04:16:41.902Z,14.96
2023-05-23T04:19:09.719Z,14.95
2023-05-23T04:21:37.398Z,14.94
2023-05-23T04:24:05.073Z,14.93
2023-05-23T04:26:33.428Z,14.90
2023-05-23T04:29:02.133Z,14.88
2023-05-23T04:31:30.245Z,14.86
2023-05-23T04:33:57.997Z,14.87
2023-05-23T04:36:25.904Z,14.88
2023-05-23T04:38:54.390Z,14.89
2023-05-23T04:41:23.796Z,14.88
2023-05-23T04:43:54.772Z,14.89
2023-05-23T04:46:27.055Z,14.90
2023-05-23T04:48:55.504Z,14.91
2023-05-23T04:51:23.161Z,14.91
2023-05-23T04:53:50.843Z,14.90
2023-05-23T04:56:21.909Z,14.92
2023-05-23T04:58:50.083Z,14.93
2023-05-23T05:01:18.118Z,14.94
2023-05-23T05:03:45.835Z,14.95
2023-05-23T05:06:13.582Z,14.96
2023-05-23T05:08:41.957Z,14.92
2023-05-23T05:11:09.809Z,14.92
2023-05-23T05:13:37.693Z,14.92
2023-05-23T05:16:05.339Z,14.91
2023-05-23T05:18:33.351Z,14.88
2023-05-23T05:21:01.391Z,14.88
2023-05-23T05:23:30.388Z,14.88
2023-05-23T05:25:58.379Z,14.89
2023-05-23T05:28:26.030Z,14.90
2023-05-23T05:30:54.699Z,14.93
2023-05-23T05:33:23.772Z,14.94
2023-05-23T05:35:52.567Z,14.96
2023-05-23T05:38:20.638Z,14.98
2023-05-23T05:40:48.642Z,14.96
2023-05-23T05:43:16.495Z,14.98
2023-05-23T05:45:44.145Z,14.99
2023-05-23T05:48:12.269Z,15.02
2023-05-23T05:50:40.664Z,15.02
2023-05-23T05:53:08.830Z,15.04
2023-05-23T05:55:36.494Z,15.08
2023-05-23T05:58:04.160Z,15.09
2023-05-23T06:00:31.851Z,15.10
2023-05-23T06:03:00.494Z,15.08
2023-05-23T06:05:28.251Z,15.08
2023-05-23T06:07:55.856Z,15.09
2023-05-23T06:10:24.730Z,15.08
2023-05-23T06:12:52.674Z,15.07
2023-05-23T06:15:20.915Z,15.05
2023-05-23T06:17:48.654Z,15.04
2023-05-23T06:20:16.531Z,15.04
2023-05-23T06:22:44.411Z,15.02
2023-05-23T06:25:12.221Z,14.99
2023-05-23T06:27:40.304Z,14.97
2023-05-23T06:30:08.072Z,14.97
2023-05-23T06:32:35.897Z,14.98
2023-05-23T06:35:03.617Z,14.95
2023-05-23T06:37:31.724Z,14.94
2023-05-23T06:39:59.756Z,14.94
2023-05-23T06:42:27.498Z,14.92
2023-05-23T06:44:55.547Z,14.91
2023-05-23T06:47:23.497Z,14.90
2023-05-23T06:49:51.312Z,14.91
2023-05-23T06:52:19.022Z,14.90
2023-05-23T06:54:46.698Z,14.89
2023-05-23T06:57:14.474Z,14.86
2023-05-23T06:59:42.115Z,14.85
2023-05-23T07:02:09.803Z,14.85
2023-05-23T07:04:37.907Z,14.85
2023-05-23T07:07:05.564Z,14.84
2023-05-23T07:09:33.228Z,14.85
2023-05-23T07:12:01.061Z,14.86
2023-05-23T07:14:28.901Z,14.85
2023-05-23T07:16:57.011Z,14.80
2023-05-23T07:19:24.816Z,14.77
2023-05-23T07:21:52.521Z,14.75
2023-05-23T07:24:20.254Z,14.72
2023-05-23T07:26:48.011Z,14.68
2023-05-23T07:29:16.306Z,14.67
2023-05-23T07:31:44.114Z,14.62
2023-05-23T07:34:11.977Z,14.57
2023-05-23T07:36:41.103Z,14.54
2023-05-23T07:39:09.036Z,14.48
2023-05-23T07:41:37.202Z,14.43
2023-05-23T07:44:04.908Z,14.39
2023-05-23T07:46:32.769Z,14.37
2023-05-23T07:49:00.864Z,14.35
2023-05-23T07:51:31.020Z,14.34
2023-05-23T07:53:59.103Z,14.37
2023-05-23T07:56:27.188Z,14.38
2023-05-23T07:58:54.837Z,14.37
2023-05-23T08:01:22.842Z,14.37
2023-05-23T08:03:50.660Z,14.34
2023-05-23T08:06:18.763Z,14.35
2023-05-23T08:08:46.517Z,14.37
2023-05-23T08:11:15.200Z,14.41
2023-05-23T08:13:43.391Z,14.46
2023-05-23T08:16:11.355Z,14.46
2023-05-23T08:18:40.137Z,14.47
2023-05-23T08:21:07.993Z,14.47
2023-05-23T08:23:35.784Z,14.52
2023-05-23T08:26:03.626Z,14.52
2023-05-23T08:28:31.590Z,14.54
2023-05-23T08:31:01.510Z,14.57
2023-05-23T08:33:29.309Z,14.57
2023-05-23T08:35:57.038Z,14.57
2023-05-23T08:38:24.933Z,14.55
2023-05-23T08:40:53.013Z,14.53
2023-05-23T08:43:21.173Z,14.57
2023-05-23T08:45:48.918Z,14.61
2023-05-23T08:48:16.880Z,14.67
2023-05-23T08:50:44.708Z,14.75
2023-05-23T08:53:19.974Z,14.83
2023-05-23T08:55:48.179Z,14.87
2023-05-23T08:58:16.411Z,14.88
2023-05-23T09:00:44.379Z,14.88
2023-05-23T09:03:13.241Z,14.86
2023-05-23T09:05:40.955Z,14.81
2023-05-23T09:08:09.053Z,14.82
2023-05-23T09:10:36.755Z,14.86
2023-05-23T09:13:04.505Z,14.90
2023-05-23T09:15:32.816Z,14.93
2023-05-23T09:18:00.687Z,14.98
2023-05-23T09:20:29.237Z,15.03
2023-05-23T09:22:57.159Z,15.06
2023-05-23T09:25:24.830Z,15.06
2023-05-23T09:27:52.702Z,15.06
2023-05-23T09:30:20.622Z,15.03
2023-05-23T09:32:48.932Z,14.99
2023-05-23T09:35:16.819Z,14.92
2023-05-23T09:37:46.207Z,14.86
2023-05-23T09:40:14.475Z,14.83
2023-05-23T09:42:42.733Z,14.83
2023-05-23T09:45:11.319Z,14.81
2023-05-23T09:47:39.285Z,14.74
2023-05-23T09:50:08.901Z,14.68
2023-05-23T09:52:36.750Z,14.59
2023-05-23T09:55:04.516Z,14.57
2023-05-23T09:57:32.649Z,14.53
2023-05-23T10:00:00.586Z,14.53
2023-05-23T10:02:28.665Z,14.53
2023-05-23T10:04:56.689Z,14.51
2023-05-23T10:07:24.579Z,14.48
2023-05-23T10:09:52.784Z,14.44
2023-05-23T10:12:20.614Z,14.40
2023-05-23T10:14:48.510Z,14.35
2023-05-23T10:17:17.283Z,14.32
2023-05-23T10:19:45.189Z,14.30
2023-05-23T10:22:13.956Z,14.29
2023-05-23T10:24:41.975Z,14.27
2023-05-23T10:27:09.891Z,14.25
2023-05-23T10:29:38.123Z,14.25
2023-05-23T10:32:05.874Z,14.20
2023-05-23T10:34:34.247Z,14.14
2023-05-23T10:37:02.094Z,14.13
2023-05-23T10:39:29.790Z,14.19
2023-05-23T10:41:58.533Z,14.22
2023-05-23T10:44:26.612Z,14.20
2023-05-23T10:46:55.532Z,14.20
2023-05-23T10:49:23.334Z,14.14
2023-05-23T10:51:52.120Z,14.09
2023-05-23T10:54:20.325Z,14.03
2023-05-23T10:56:48.234Z,13.97
2023-05-23T10:59:16.327Z,13.93
2023-05-23T11:01:44.155Z,13.90
2023-05-23T11:04:11.999Z,13.88
2023-05-23T11:06:41.471Z,13.89
2023-05-23T11:09:09.951Z,13.92
2023-05-23T11:11:38.035Z,13.95
2023-05-23T11:14:06.286Z,14.06
2023-05-23T11:16:34.146Z,14.18
2023-05-23T11:19:02.426Z,14.28
2023-05-23T11:21:30.300Z,14.47
2023-05-23T11:23:58.532Z,14.80
2023-05-23T11:26:26.405Z,15.22
2023-05-23T11:28:54.274Z,15.75
2023-05-23T11:31:24.419Z,16.11
2023-05-23T11:33:52.242Z,16.25
2023-05-23T11:36:20.675Z,16.28
2023-05-23T11:38:48.448Z,16.23
2023-05-23T11:41:16.238Z,16.15
2023-05-23T11:43:44.154Z,16.02
2023-05-23T11:46:11.982Z,15.82
2023-05-23T11:48:40.089Z,15.71
2023-05-23T11:51:07.895Z,15.60
2023-05-23T11:53:36.185Z,15.49
2023-05-23T11:56:04.471Z,15.38
2023-05-23T11:58:32.415Z,15.37
2023-05-23T12:01:00.519Z,15.50
2023-05-23T12:03:28.459Z,15.60
2023-05-23T12:05:56.604Z,15.63
2023-05-23T12:08:25.384Z,15.54
2023-05-23T12:10:53.250Z,15.48
2023-05-23T12:13:21.685Z,15.48
2023-05-23T12:15:49.811Z,15.56
2023-05-23T12:18:20.444Z,15.76
2023-05-23T12:20:48.455Z,15.94
2023-05-23T12:23:16.241Z,16.02
2023-05-23T12:25:44.340Z,16.06
2023-05-23T12:28:14.229Z,16.05
2023-05-23T12:30:42.252Z,15.95
2023-05-23T12:33:10.572Z,15.79
2023-05-23T12:35:38.609Z,15.62
2023-05-23T12:38:07.762Z,15.50
2023-05-23T12:40:35.665Z,15.42
2023-05-23T12:43:03.694Z,15.40
2023-05-23T12:45:31.776Z,15.45
2023-05-23T12:47:59.793Z,15.67
2023-05-23T12:50:28.454Z,16.30
2023-05-23T12:52:56.292Z,17.03
2023-05-23T12:55:24.170Z,17.41
2023-05-23T12:57:52.409Z,17.44
2023-05-23T13:00:20.762Z,17.46
2023-05-23T13:02:49.851Z,17.59
2023-05-23T13:05:17.728Z,17.68
2023-05-23T13:07:45.641Z,17.79
2023-05-23T13:10:14.074Z,17.83
2023-05-23T13:12:42.069Z,18.03
2023-05-23T13:15:10.382Z,19.03
2023-05-23T13:17:38.323Z,20.15
2023-05-23T13:20:06.578Z,21.25
2023-05-23T13:22:36.153Z,22.11
2023-05-23T13:25:04.063Z,22.51
2023-05-23T13:27:32.371Z,22.94
2023-05-23T13:30:00.318Z,22.76
2023-05-23T13:32:28.141Z,23.08
2023-05-23T13:34:56.393Z,23.18
2023-05-23T13:37:24.273Z,23.27
2023-05-23T13:39:52.408Z,23.36
2023-05-23T13:42:20.398Z,23.09
2023-05-23T13:44:48.642Z,22.96
2023-05-23T13:47:16.432Z,22.95
2023-05-23T13:49:44.533Z,22.85
2023-05-23T13:52:12.910Z,22.27
2023-05-23T13:54:41.727Z,21.55
2023-05-23T13:57:09.696Z,20.93
2023-05-23T13:59:37.752Z,20.48
2023-05-23T14:02:05.777Z,20.11
2023-05-23T14:04:33.916Z,19.86
2023-05-23T14:07:01.794Z,19.77
2023-05-23T14:09:29.816Z,19.61
2023-05-23T14:11:57.983Z,19.85
2023-05-23T14:14:27.295Z,19.68
2023-05-23T14:16:55.364Z,19.42
2023-05-23T14:19:23.425Z,19.37
2023-05-23T14:21:51.306Z,19.30
2023-05-23T14:24:19.600Z,19.74
2023-05-23T14:26:47.758Z,19.85
2023-05-23T14:29:16.907Z,19.65
2023-05-23T14:31:44.678Z,19.39
2023-05-23T14:34:12.750Z,19.17
2023-05-23T14:36:40.519Z,18.98
2023-05-23T14:39:10.638Z,19.13
2023-05-23T14:41:39.264Z,19.35
2023-05-23T14:44:07.241Z,19.42
2023-05-23T14:46:35.192Z,20.09
2023-05-23T14:49:03.391Z,21.00
2023-05-23T14:51:46.173Z,21.88
2023-05-23T14:54:18.614Z,22.22
2023-05-23T14:56:46.507Z,21.57
2023-05-23T14:59:15.468Z,20.77
2023-05-23T15:01:43.552Z,20.15
2023-05-23T15:04:11.685Z,19.81
2023-05-23T15:06:40.348Z,20.07
2023-05-23T15:09:10.737Z,20.13
2023-05-23T15:11:40.564Z,20.57
2023-05-23T15:14:08.336Z,21.27
2023-05-23T15:16:37.130Z,22.00
2023-05-23T15:19:05.453Z,22.98
2023-05-23T15:21:33.621Z,23.89
2023-05-23T15:24:02.136Z,24.24
2023-05-23T15:26:29.897Z,24.77
2023-05-23T15:28:57.663Z,25.07
2023-05-23T15:31:25.638Z,24.18
2023-05-23T15:33:53.538Z,23.05
2023-05-23T15:36:21.277Z,22.03
2023-05-23T15:38:49.222Z,21.40
2023-05-23T15:41:17.091Z,21.13
2023-05-23T15:43:45.189Z,20.92
2023-05-23T15:46:13.193Z,20.84
2023-05-23T15:48:41.260Z,20.49
2023-05-23T15:51:08.982Z,20.04
2023-05-23T15:53:47.914Z,19.81
2023-05-23T15:56:25.373Z,19.48
2023-05-23T15:58:53.603Z,19.18
2023-05-23T16:01:21.429Z,18.90
2023-05-23T16:03:49.188Z,18.77
2023-05-23T16:06:17.008Z,18.72
2023-05-23T16:08:45.246Z,18.55
2023-05-23T16:11:13.001Z,18.37
2023-05-23T16:13:41.230Z,18.17
2023-05-23T16:16:08.959Z,18.15
2023-05-23T16:18:36.718Z,18.04
2023-05-23T16:21:05.066Z,17.92
2023-05-23T16:23:33.052Z,17.92
2023-05-23T16:26:00.846Z,17.87
2023-05-23T16:28:28.726Z,17.73
2023-05-23T16:30:56.984Z,17.59
2023-05-23T16:33:25.173Z,17.46
2023-05-23T16:35:53.567Z,17.33
2023-05-23T16:38:22.071Z,17.26
2023-05-23T16:40:49.988Z,17.27
2023-05-23T16:43:17.786Z,17.30
2023-05-23T16:45:46.132Z,17.32
2023-05-23T16:48:14.181Z,17.42
2023-05-23T16:50:42.527Z,17.50
2023-05-23T16:53:10.606Z,17.54
2023-05-23T16:55:38.323Z,17.56
2023-05-23T16:58:07.103Z,17.49
2023-05-23T17:00:35.144Z,17.38
2023-05-23T17:03:03.152Z,17.29
2023-05-23T17:05:31.211Z,17.20
2023-05-23T17:07:58.999Z,17.04
2023-05-23T17:10:27.188Z,16.90
2023-05-23T17:12:55.412Z,16.79
2023-05-23T17:15:23.217Z,16.71
2023-05-23T17:17:51.181Z,16.61
2023-05-23T17:20:24.155Z,16.47
2023-05-23T17:22:52.665Z,16.37
2023-05-23T17:25:20.800Z,16.32
2023-05-23T17:27:48.764Z,16.32
2023-05-23T17:30:18.761Z,16.33
2023-05-23T17:32:47.365Z,16.36
2023-05-23T17:35:15.429Z,16.33
2023-05-23T17:37:45.144Z,16.27
2023-05-23T17:40:13.181Z,16.16
2023-05-23T17:42:41.034Z,16.04
2023-05-23T17:45:09.663Z,15.93
2023-05-23T17:47:37.892Z,15.76
2023-05-23T17:50:06.619Z,15.61
2023-05-23T17:52:34.433Z,15.48
2023-05-23T17:55:02.296Z,15.37
2023-05-23T17:57:31.393Z,15.28
2023-05-23T17:59:59.832Z,15.20
2023-05-23T18:02:29.293Z,15.14
2023-05-23T18:04:57.640Z,15.08
2023-05-23T18:07:25.469Z,15.00
2023-05-23T18:09:53.343Z,14.93
2023-05-23T18:12:21.737Z,14.87
2023-05-23T18:14:49.794Z,14.80
2023-05-23T18:17:19.495Z,14.72
2023-05-23T18:19:48.325Z,14.64
2023-05-23T18:22:16.920Z,14.58
2023-05-23T18:24:45.693Z,14.54
2023-05-23T18:27:13.843Z,14.47
2023-05-23T18:29:41.740Z,14.41
2023-05-23T18:32:09.602Z,14.35
2023-05-23T18:34:38.021Z,14.28
2023-05-23T18:37:05.930Z,14.23
2023-05-23T18:39:33.994Z,14.17
2023-05-23T18:42:02.137Z,14.12
2023-05-23T18:44:29.943Z,14.06
2023-05-23T18:46:58.300Z,13.98
2023-05-23T18:49:27.108Z,13.93
2023-05-23T18:51:55.046Z,13.87
2023-05-23T18:54:22.834Z,13.81
2023-05-23T18:56:50.715Z,13.72
2023-05-23T18:59:18.620Z,13.66
2023-05-23T19:01:46.946Z,13.59
2023-05-23T19:04:15.251Z,13.53
2023-05-23T19:06:43.133Z,13.45
2023-05-23T19:09:11.840Z,13.37
2023-05-23T19:11:40.008Z,13.28
2023-05-23T19:14:08.293Z,13.18
2023-05-23T19:16:36.483Z,13.10
2023-05-23T19:19:04.468Z,13.01
2023-05-23T19:21:32.877Z,12.93
2023-05-23T19:24:00.701Z,12.83
2023-05-23T19:26:29.159Z,12.77
2023-05-23T19:28:56.948Z,12.67
2023-05-23T19:31:25.353Z,12.61
2023-05-23T19:33:53.215Z,12.54
2023-05-23T19:36:21.045Z,12.48
2023-05-23T19:38:48.826Z,12.42
2023-05-23T19:41:18.380Z,12.37
2023-05-23T19:43:48.037Z,12.34
2023-05-23T19:46:16.329Z,12.30
2023-05-23T19:48:45.097Z,12.28
2023-05-23T19:51:13.222Z,12.24
2023-05-23T19:53:42.655Z,12.22
2023-05-23T19:56:10.443Z,12.17
2023-05-23T19:58:38.289Z,12.13
2023-05-23T20:01:06.135Z,12.08
2023-05-23T20:03:34.709Z,12.02
2023-05-23T20:06:02.588Z,11.98
2023-05-23T20:08:30.524Z,11.97
2023-05-23T20:10:59.717Z,11.93
2023-05-23T20:13:28.233Z,11.90
2023-05-23T20:15:57.027Z,11.85
2023-05-23T20:18:24.939Z,11.83
2023-05-23T20:20:52.829Z,11.82
2023-05-23T20:23:20.739Z,11.85
2023-05-23T20:25:48.652Z,11.88
2023-05-23T20:28:16.472Z,11.87
2023-05-23T20:30:44.490Z,11.87
2023-05-23T20:33:15.363Z,11.86
2023-05-23T20:35:43.709Z,11.85
2023-05-23T20:38:13.844Z,11.80
2023-05-23T20:40:42.095Z,11.74
2023-05-23T20:43:10.492Z,11.67
2023-05-23T20:45:38.335Z,11.60
2023-05-23T20:48:06.373Z,11.54
2023-05-23T20:50:35.678Z,11.47
2023-05-23T20:53:03.850Z,11.46
2023-05-23T20:55:35.149Z,11.44
2023-05-23T20:58:03.005Z,11.40
2023-05-23T21:00:31.358Z,11.38
2023-05-23T21:03:02.405Z,11.35
2023-05-23T21:05:30.363Z,11.29
2023-05-23T21:07:58.380Z,11.24
2023-05-23T21:10:26.616Z,11.20
2023-05-23T21:12:54.380Z,11.14
2023-05-23T21:15:22.284Z,11.08
2023-05-23T21:17:51.789Z,11.03
2023-05-23T21:20:21.624Z,10.97
2023-05-23T21:22:49.775Z,10.93
2023-05-23T21:25:17.536Z,10.89
2023-05-23T21:27:45.308Z,10.87
2023-05-23T21:30:13.451Z,10.85
2023-05-23T21:32:41.331Z,10.81
2023-05-23T21:35:09.067Z,10.76
2023-05-23T21:37:36.837Z,10.74
2023-05-23T21:40:04.607Z,10.68
2023-05-23T21:42:32.637Z,10.63
2023-05-23T21:45:02.204Z,10.59
2023-05-23T21:47:29.862Z,10.53
2023-05-23T21:49:57.595Z,10.49
2023-05-23T21:52:25.395Z,10.44
2023-05-23T21:54:53.511Z,10.40
2023-05-23T21:57:21.476Z,10.36
2023-05-23T21:59:49.225Z,10.30
2023-05-23T22:02:17.348Z,10.24
2023-05-23T22:04:46.291Z,10.16
2023-05-23T22:07:14.342Z,10.11
2023-05-23T22:09:42.227Z,10.05
2023-05-23T22:12:09.990Z,9.98
2023-05-23T22:14:37.724Z,9.92
2023-05-23T22:17:05.390Z,9.85
2023-05-23T22:19:33.471Z,9.78
2023-05-23T22:22:01.443Z,9.71
2023-05-23T22:24:29.387Z,9.65
2023-05-23T22:26:58.406Z,9.59
2023-05-23T22:29:26.516Z,9.53
2023-05-23T22:31:54.251Z,9.48
2023-05-23T22:34:21.924Z,9.42
2023-05-23T22:36:49.633Z,9.37
2023-05-23T22:39:17.268Z,9.32
2023-05-23T22:41:44.966Z,9.27
2023-05-23T22:44:12.977Z,9.23
2023-05-23T22:46:43.657Z,9.20
2023-05-23T22:49:11.462Z,9.17
2023-05-23T22:51:40.357Z,9.14
2023-05-23T22:54:08.013Z,9.10
2023-05-23T22:56:36.074Z,9.08
2023-05-23T22:59:03.942Z,9.05
2023-05-23T23:01:31.612Z,9.02
2023-05-23T23:03:59.343Z,8.98
2023-05-23T23:06:27.029Z,8.95
2023-05-23T23:08:55.015Z,8.90
2023-05-23T23:11:22.789Z,8.85
2023-05-23T23:13:50.967Z,8.82
2023-05-23T23:16:19.622Z,8.80
2023-05-23T23:18:47.630Z,8.77
2023-05-23T23:21:15.669Z,8.75
2023-05-23T23:23:43.756Z,8.74
2023-05-23T23:26:11.458Z,8.71
2023-05-23T23:28:39.120Z,8.68
2023-05-23T23:31:06.809Z,8.64
2023-05-23T23:33:34.848Z,8.60
2023-05-23T23:36:02.715Z,8.57
2023-05-23T23:38:30.322Z,8.52
2023-05-23T23:40:57.926Z,8.49
2023-05-23T23:43:25.598Z,8.45
2023-05-23T23:45:53.621Z,8.43
2023-05-23T23:48:21.237Z,8.38
2023-05-23T23:50:48.937Z,8.35
2023-05-23T23:53:17.009Z,8.32
2023-05-23T23:55:44.722Z,8.29
2023-05-23T23:58:13.093Z,8.27
